createdAt,value
2023-01-18T00:00:52.389Z,0.00
2023-01-18T00:03:20.105Z,0.10
2023-01-18T00:05:47.575Z,0.37
2023-01-18T00:08:18.981Z,0.47
2023-01-18T00:10:47.252Z,0.28
2023-01-18T00:13:14.809Z,0.28
2023-01-18T00:15:42.334Z,0.00
2023-01-18T00:18:10.469Z,0.17
2023-01-18T00:20:38.299Z,0.20
2023-01-18T00:23:05.914Z,0.10
2023-01-18T00:25:33.729Z,0.10
2023-01-18T00:28:01.305Z,0.10
2023-01-18T00:30:29.889Z,0.43
2023-01-18T00:32:59.449Z,1.08
2023-01-18T00:35:27.208Z,0.00
2023-01-18T00:37:54.679Z,0.65
2023-01-18T00:40:23.163Z,0.05
2023-01-18T00:43:09.420Z,0.20
2023-01-18T00:45:37.724Z,0.10
2023-01-18T00:48:05.508Z,0.03
2023-01-18T00:50:33.125Z,0.00
2023-01-18T00:53:00.887Z,0.40
2023-01-18T00:55:28.467Z,0.20
2023-01-18T00:57:55.884Z,0.20
2023-01-18T01:00:26.963Z,0.47
2023-01-18T01:02:55.044Z,1.00
2023-01-18T01:05:43.155Z,0.88
2023-01-18T01:08:17.031Z,0.10
2023-01-18T01:10:48.213Z,0.00
2023-01-18T01:13:38.409Z,0.95
2023-01-18T01:16:29.694Z,0.30
2023-01-18T01:19:16.963Z,2.20
2023-01-18T01:22:03.286Z,0.43
2023-01-18T01:24:49.763Z,0.03
2023-01-18T01:27:17.716Z,0.85
2023-01-18T01:29:45.587Z,0.28
2023-01-18T01:32:13.450Z,0.10
2023-01-18T01:34:40.890Z,0.40
2023-01-18T01:37:08.685Z,0.88
2023-01-18T01:39:36.716Z,0.13
2023-01-18T01:42:04.396Z,1.00
2023-01-18T01:44:34.591Z,0.62
2023-01-18T01:47:17.759Z,0.85
2023-01-18T01:49:48.394Z,0.75
2023-01-18T01:52:19.447Z,0.50
2023-01-18T01:54:57.484Z,1.75
2023-01-18T01:57:31.225Z,0.43
2023-01-18T02:00:10.355Z,0.22
2023-01-18T02:02:40.080Z,0.43
2023-01-18T02:05:09.793Z,0.68
2023-01-18T02:07:37.378Z,0.45
2023-01-18T02:10:06.352Z,0.88
2023-01-18T02:12:35.550Z,0.52
2023-01-18T02:15:03.625Z,0.20
2023-01-18T02:17:59.151Z,1.33
2023-01-18T02:20:44.388Z,0.13
2023-01-18T02:23:46.503Z,0.52
2023-01-18T02:26:36.167Z,0.37
2023-01-18T02:29:06.623Z,0.73
2023-01-18T02:31:40.055Z,1.08
2023-01-18T02:34:16.777Z,0.70
2023-01-18T02:37:22.763Z,0.03
2023-01-18T02:39:50.043Z,0.03
2023-01-18T02:42:38.958Z,1.40
2023-01-18T02:45:39.700Z,0.17
2023-01-18T02:48:08.503Z,0.00
2023-01-18T02:50:36.349Z,0.05
2023-01-18T02:53:03.988Z,1.02
2023-01-18T02:55:51.580Z,0.00
2023-01-18T02:58:24.963Z,0.10
2023-01-18T03:00:57.919Z,1.02
2023-01-18T03:03:26.250Z,1.25
2023-01-18T03:05:58.723Z,0.00
2023-01-18T03:08:39.032Z,0.15
2023-01-18T03:11:11.215Z,0.28
2023-01-18T03:14:03.335Z,0.88
2023-01-18T03:16:59.243Z,0.08
2023-01-18T03:20:05.531Z,0.20
2023-01-18T03:23:06.895Z,0.95
2023-01-18T03:25:36.864Z,0.43
2023-01-18T03:29:06.837Z,0.00
2023-01-18T03:32:02.478Z,0.05
2023-01-18T03:34:34.279Z,0.68
2023-01-18T03:37:04.331Z,0.30
2023-01-18T03:39:37.234Z,0.00
2023-01-18T03:42:10.048Z,0.00
2023-01-18T03:44:41.683Z,0.00
2023-01-18T03:47:09.333Z,0.50
2023-01-18T03:49:37.116Z,0.00
2023-01-18T03:52:13.360Z,0.30
2023-01-18T03:54:50.200Z,0.32
2023-01-18T03:57:24.359Z,1.02
2023-01-18T03:59:51.930Z,0.82
2023-01-18T04:02:20.786Z,0.25
2023-01-18T04:04:48.771Z,0.30
2023-01-18T04:07:16.097Z,0.43
2023-01-18T04:09:44.014Z,0.40
2023-01-18T04:12:12.215Z,1.05
2023-01-18T04:14:39.858Z,0.77
2023-01-18T04:17:07.317Z,1.35
2023-01-18T04:19:35.124Z,0.55
2023-01-18T04:22:02.676Z,0.35
2023-01-18T04:24:30.283Z,0.28
2023-01-18T04:26:58.220Z,0.47
2023-01-18T04:29:25.831Z,0.37
2023-01-18T04:31:53.301Z,0.55
2023-01-18T04:34:23.939Z,1.25
2023-01-18T04:36:51.815Z,1.02
2023-01-18T04:39:19.598Z,0.85
2023-01-18T04:41:47.509Z,0.55
2023-01-18T04:44:15.337Z,0.68
2023-01-18T04:46:43.396Z,0.00
2023-01-18T04:49:15.367Z,0.62
2023-01-18T04:51:43.986Z,0.13
2023-01-18T04:54:14.556Z,0.35
2023-01-18T04:56:42.144Z,0.00
2023-01-18T04:59:14.561Z,0.60
2023-01-18T05:01:42.451Z,0.10
2023-01-18T05:04:11.223Z,0.03
2023-01-18T05:06:38.878Z,0.35
2023-01-18T05:09:06.601Z,0.00
2023-01-18T05:11:34.152Z,0.30
2023-01-18T05:14:01.571Z,0.43
2023-01-18T05:16:29.467Z,1.12
2023-01-18T05:18:57.210Z,0.35
2023-01-18T05:21:24.736Z,0.75
2023-01-18T05:23:52.866Z,0.00
2023-01-18T05:26:22.600Z,0.55
2023-01-18T05:28:50.717Z,1.45
2023-01-18T05:31:21.222Z,0.30
2023-01-18T05:33:49.629Z,0.30
2023-01-18T05:36:17.593Z,0.00
2023-01-18T05:38:46.660Z,0.10
2023-01-18T05:41:14.241Z,0.43
2023-01-18T05:43:42.242Z,0.05
2023-01-18T05:46:09.928Z,0.00
2023-01-18T05:48:37.580Z,0.20
2023-01-18T05:51:09.389Z,0.30
2023-01-18T05:53:37.546Z,0.10
2023-01-18T05:56:06.760Z,0.00
2023-01-18T05:58:35.463Z,0.37
2023-01-18T06:01:03.429Z,0.00
2023-01-18T06:03:31.161Z,0.00
2023-01-18T06:05:59.212Z,0.00
2023-01-18T06:08:27.252Z,0.35
2023-01-18T06:10:56.199Z,0.57
2023-01-18T06:13:24.616Z,0.00
2023-01-18T06:15:54.628Z,0.00
2023-01-18T06:18:24.128Z,0.10
2023-01-18T06:20:59.096Z,0.10
2023-01-18T06:23:29.255Z,0.00
2023-01-18T06:25:56.674Z,0.00
2023-01-18T06:28:24.455Z,0.00
2023-01-18T06:30:53.255Z,0.00
2023-01-18T06:33:21.417Z,0.00
2023-01-18T06:35:49.039Z,0.52
2023-01-18T06:38:16.993Z,0.00
2023-01-18T06:40:44.412Z,0.10
2023-01-18T06:43:14.339Z,0.00
2023-01-18T06:45:42.369Z,0.00
2023-01-18T06:48:09.771Z,0.57
2023-01-18T06:50:37.258Z,0.00
2023-01-18T06:53:05.196Z,0.45
2023-01-18T06:55:34.791Z,0.00
2023-01-18T06:58:02.688Z,0.05
2023-01-18T07:00:30.521Z,0.05
2023-01-18T07:02:58.662Z,0.10
2023-01-18T07:05:26.345Z,0.00
2023-01-18T07:07:54.253Z,0.17
2023-01-18T07:10:21.784Z,0.00
2023-01-18T07:12:50.932Z,0.30
2023-01-18T07:15:22.900Z,0.00
2023-01-18T07:17:50.934Z,0.10
2023-01-18T07:20:19.927Z,0.00
2023-01-18T07:22:52.752Z,0.00
2023-01-18T07:25:20.841Z,0.00
2023-01-18T07:27:49.204Z,0.00
2023-01-18T07:30:17.843Z,0.00
2023-01-18T07:32:50.570Z,0.17
2023-01-18T07:35:22.110Z,0.00
2023-01-18T07:37:52.278Z,0.00
2023-01-18T07:40:21.341Z,0.00
2023-01-18T07:42:49.370Z,0.00
2023-01-18T07:45:17.320Z,0.00
2023-01-18T07:47:46.255Z,0.80
2023-01-18T07:50:16.810Z,0.00
2023-01-18T07:52:44.513Z,0.00
2023-01-18T07:55:12.044Z,0.47
2023-01-18T07:57:39.510Z,0.22
2023-01-18T08:00:08.190Z,0.00
2023-01-18T08:02:40.015Z,0.00
2023-01-18T08:05:10.663Z,0.00
2023-01-18T08:07:38.261Z,0.00
2023-01-18T08:10:05.858Z,0.47
2023-01-18T08:12:33.768Z,0.20
2023-01-18T08:15:01.288Z,0.00
2023-01-18T08:17:29.804Z,0.00
2023-01-18T08:19:57.558Z,0.00
2023-01-18T08:22:25.175Z,0.00
2023-01-18T08:24:52.809Z,0.25
2023-01-18T08:27:20.687Z,0.45
2023-01-18T08:29:48.431Z,0.00
2023-01-18T08:32:16.011Z,0.00
2023-01-18T08:34:43.753Z,0.10
2023-01-18T08:37:11.878Z,0.00
2023-01-18T08:39:39.394Z,0.05
2023-01-18T08:42:07.311Z,0.37
2023-01-18T08:44:34.909Z,0.00
2023-01-18T08:47:03.390Z,0.55
2023-01-18T08:49:32.788Z,0.00
2023-01-18T08:52:00.706Z,0.00
2023-01-18T08:54:28.120Z,0.75
2023-01-18T08:56:55.814Z,0.03
2023-01-18T08:59:23.945Z,0.37
2023-01-18T09:01:51.608Z,0.32
2023-01-18T09:04:19.468Z,0.22
2023-01-18T09:06:50.306Z,0.00
2023-01-18T09:09:17.658Z,0.35
2023-01-18T09:11:45.433Z,0.75
2023-01-18T09:14:12.950Z,1.73
2023-01-18T09:16:40.534Z,0.20
2023-01-18T09:19:08.476Z,0.00
2023-01-18T09:21:36.032Z,0.22
2023-01-18T09:24:03.974Z,0.45
2023-01-18T09:26:31.882Z,0.00
2023-01-18T09:28:59.365Z,0.00
2023-01-18T09:31:28.289Z,0.52
2023-01-18T09:34:12.990Z,0.15
2023-01-18T09:36:44.726Z,0.70
2023-01-18T09:39:12.493Z,0.20
2023-01-18T09:41:43.191Z,0.00
2023-01-18T09:44:17.794Z,0.00
2023-01-18T09:46:51.844Z,0.25
2023-01-18T09:49:29.073Z,0.10
2023-01-18T09:52:13.147Z,0.00
2023-01-18T09:54:51.507Z,0.13
2023-01-18T09:57:31.335Z,0.20
2023-01-18T10:00:00.172Z,0.37
2023-01-18T10:02:39.171Z,0.10
2023-01-18T10:05:23.304Z,0.05
2023-01-18T10:08:02.539Z,0.43
2023-01-18T10:10:39.962Z,1.62
2023-01-18T10:13:35.467Z,0.65
2023-01-18T10:16:08.311Z,0.28
2023-01-18T10:18:45.635Z,0.55
2023-01-18T10:21:23.146Z,0.13
2023-01-18T10:24:21.784Z,0.35
2023-01-18T10:26:53.749Z,0.00
2023-01-18T10:29:25.342Z,0.37
2023-01-18T10:32:01.843Z,0.13
2023-01-18T10:34:35.145Z,1.00
2023-01-18T10:37:14.457Z,0.50
2023-01-18T10:40:03.432Z,0.10
2023-01-18T10:42:45.433Z,0.45
2023-01-18T10:45:20.396Z,0.10
2023-01-18T10:47:49.158Z,0.30
2023-01-18T10:50:38.322Z,0.05
2023-01-18T10:53:25.280Z,0.00
2023-01-18T10:55:59.402Z,0.00
2023-01-18T10:58:30.745Z,0.00
2023-01-18T11:01:00.521Z,0.15
2023-01-18T11:03:29.042Z,0.00
2023-01-18T11:06:07.199Z,0.10
2023-01-18T11:08:35.922Z,0.20
2023-01-18T11:11:20.019Z,0.32
2023-01-18T11:13:52.863Z,0.10
2023-01-18T11:16:22.540Z,0.17
2023-01-18T11:18:59.379Z,0.17
2023-01-18T11:21:33.241Z,0.00
2023-01-18T11:24:07.727Z,0.00
2023-01-18T11:26:35.591Z,0.00
2023-01-18T11:29:06.219Z,0.40
2023-01-18T11:31:46.193Z,0.05
2023-01-18T11:34:23.371Z,0.52
2023-01-18T11:36:51.282Z,0.52
2023-01-18T11:39:29.120Z,0.00
2023-01-18T11:42:32.469Z,0.32
2023-01-18T11:45:16.255Z,0.00
2023-01-18T11:47:51.681Z,0.30
2023-01-18T11:50:47.248Z,0.17
2023-01-18T11:53:33.449Z,0.20
2023-01-18T11:56:07.551Z,0.15
2023-01-18T11:58:36.005Z,0.22
2023-01-18T12:01:22.761Z,0.03
2023-01-18T12:03:58.821Z,0.10
2023-01-18T12:06:36.256Z,0.00
2023-01-18T12:09:14.487Z,0.00
2023-01-18T12:11:58.025Z,0.95
2023-01-18T12:15:11.230Z,0.20
2023-01-18T12:18:27.531Z,0.10
2023-01-18T12:21:21.061Z,0.00
2023-01-18T12:23:54.825Z,0.75
2023-01-18T12:26:22.654Z,1.12
2023-01-18T12:28:57.747Z,0.10
2023-01-18T12:31:44.196Z,0.00
2023-01-18T12:34:25.077Z,0.00
2023-01-18T12:36:55.933Z,0.00
2023-01-18T12:39:55.653Z,0.43
2023-01-18T12:42:28.585Z,0.00
2023-01-18T12:45:07.717Z,0.00
2023-01-18T12:47:47.870Z,0.00
2023-01-18T12:50:27.771Z,0.73
2023-01-18T12:53:01.118Z,0.37
2023-01-18T12:55:31.843Z,0.00
2023-01-18T12:58:00.641Z,0.33
2023-01-18T13:00:38.332Z,1.17
2023-01-18T13:03:13.835Z,0.08
2023-01-18T13:05:52.613Z,0.20
2023-01-18T13:08:50.172Z,0.00
2023-01-18T13:11:36.366Z,0.30
2023-01-18T13:14:25.685Z,0.00
2023-01-18T13:17:19.344Z,0.32
2023-01-18T13:19:55.030Z,0.00
2023-01-18T13:22:44.384Z,1.30
2023-01-18T13:25:29.360Z,0.40
2023-01-18T13:28:01.074Z,0.98
2023-01-18T13:30:32.611Z,0.40
2023-01-18T13:33:00.730Z,0.20
2023-01-18T13:35:33.495Z,0.80
2023-01-18T13:38:12.116Z,0.65
2023-01-18T13:40:51.904Z,1.00
2023-01-18T13:43:38.154Z,0.22
2023-01-18T13:46:08.586Z,0.62
2023-01-18T13:48:54.500Z,0.47
2023-01-18T13:51:40.690Z,0.52
2023-01-18T13:54:29.873Z,1.08
2023-01-18T13:57:04.557Z,0.75
2023-01-18T13:59:37.505Z,0.05
2023-01-18T14:02:17.683Z,0.13
2023-01-18T14:04:45.615Z,0.00
2023-01-18T14:07:22.911Z,0.55
2023-01-18T14:09:51.426Z,0.00
2023-01-18T14:12:48.566Z,0.10
2023-01-18T14:15:41.965Z,0.40
2023-01-18T14:20:52.215Z,0.20
2023-01-18T14:23:48.675Z,1.00
2023-01-18T14:26:17.416Z,1.42
2023-01-18T14:28:53.044Z,0.08
2023-01-18T14:31:28.100Z,0.82
2023-01-18T14:33:55.612Z,0.50
2023-01-18T14:36:26.502Z,0.40
2023-01-18T14:39:13.461Z,0.10
2023-01-18T14:41:43.682Z,0.57
2023-01-18T14:44:23.329Z,0.98
2023-01-18T14:46:56.696Z,4.07
2023-01-18T14:49:35.155Z,2.33
2023-01-18T14:52:13.421Z,0.70
2023-01-18T14:54:53.764Z,0.60
2023-01-18T14:57:36.795Z,0.30
2023-01-18T15:00:16.801Z,0.80
2023-01-18T15:02:46.652Z,0.65
2023-01-18T15:05:22.941Z,0.13
2023-01-18T15:07:56.268Z,0.08
2023-01-18T15:10:37.848Z,1.40
2023-01-18T15:13:16.506Z,0.00
2023-01-18T15:15:44.672Z,0.88
2023-01-18T15:18:20.560Z,1.30
2023-01-18T15:21:04.591Z,1.35
2023-01-18T15:23:41.676Z,2.40
2023-01-18T15:26:13.317Z,3.60
2023-01-18T15:28:46.314Z,1.48
2023-01-18T15:31:23.627Z,1.30
2023-01-18T15:33:54.452Z,0.62
2023-01-18T15:36:23.277Z,0.98
2023-01-18T15:38:54.037Z,1.12
2023-01-18T15:41:21.912Z,2.17
2023-01-18T15:43:49.469Z,3.70
2023-01-18T15:46:17.652Z,2.72
2023-01-18T15:48:53.817Z,3.25
2023-01-18T15:51:22.745Z,2.30
2023-01-18T15:53:56.309Z,1.42
2023-01-18T15:56:26.841Z,1.83
2023-01-18T15:58:56.177Z,2.37
2023-01-18T16:01:28.211Z,4.82
2023-01-18T16:04:22.228Z,1.30
2023-01-18T16:06:49.873Z,2.33
2023-01-18T16:09:20.897Z,2.30
2023-01-18T16:11:54.589Z,3.72
2023-01-18T16:14:28.998Z,2.83
2023-01-18T16:17:06.056Z,2.87
2023-01-18T16:19:41.825Z,2.37
2023-01-18T16:22:37.241Z,1.08
2023-01-18T16:25:16.962Z,1.48
2023-01-18T16:27:53.262Z,2.72
2023-01-18T16:30:35.297Z,4.75
2023-01-18T16:33:10.084Z,4.18
2023-01-18T16:35:39.945Z,3.37
2023-01-18T16:38:15.683Z,4.53
2023-01-18T16:40:45.121Z,4.03
2023-01-18T16:43:18.963Z,6.65
2023-01-18T16:45:49.457Z,4.47
2023-01-18T16:48:28.101Z,4.15
2023-01-18T16:50:56.648Z,6.28
2023-01-18T16:53:24.155Z,4.15
2023-01-18T16:55:51.815Z,4.40
2023-01-18T16:58:21.240Z,3.45
2023-01-18T17:00:51.551Z,3.95
2023-01-18T17:03:19.447Z,3.72
2023-01-18T17:05:47.039Z,2.33
2023-01-18T17:08:15.778Z,2.08
2023-01-18T17:10:46.428Z,3.05
2023-01-18T17:13:13.849Z,3.75
2023-01-18T17:15:45.530Z,3.60
2023-01-18T17:18:15.540Z,3.90
2023-01-18T17:20:43.610Z,3.40
2023-01-18T17:23:11.427Z,3.00
2023-01-18T17:25:39.302Z,1.90
2023-01-18T17:28:07.022Z,2.75
2023-01-18T17:30:34.993Z,1.85
2023-01-18T17:33:03.179Z,0.50
2023-01-18T17:35:32.095Z,3.58
2023-01-18T17:38:06.176Z,3.55
2023-01-18T17:40:43.826Z,3.25
2023-01-18T17:43:28.578Z,3.45
2023-01-18T17:46:03.214Z,1.65
2023-01-18T17:48:30.648Z,4.20
2023-01-18T17:50:58.735Z,1.83
2023-01-18T17:53:27.098Z,3.58
2023-01-18T17:55:55.203Z,4.20
2023-01-18T17:58:22.817Z,3.40
2023-01-18T18:00:51.194Z,1.50
2023-01-18T18:03:20.208Z,0.73
2023-01-18T18:05:48.220Z,1.55
2023-01-18T18:08:18.059Z,1.40
2023-01-18T18:10:45.929Z,0.32
2023-01-18T18:13:13.462Z,1.98
2023-01-18T18:15:45.983Z,0.45
2023-01-18T18:18:22.747Z,1.55
2023-01-18T18:21:02.488Z,2.53
2023-01-18T18:23:30.910Z,0.93
2023-01-18T18:25:59.335Z,1.33
2023-01-18T18:28:29.531Z,2.62
2023-01-18T18:30:58.441Z,2.45
2023-01-18T18:33:26.947Z,1.85
2023-01-18T18:35:54.644Z,1.15
2023-01-18T18:38:23.159Z,1.60
2023-01-18T18:40:51.465Z,0.93
2023-01-18T18:43:19.168Z,0.77
2023-01-18T18:45:47.604Z,3.62
2023-01-18T18:48:15.106Z,2.72
2023-01-18T18:50:42.692Z,2.20
2023-01-18T18:53:10.458Z,1.75
2023-01-18T18:55:38.093Z,0.65
2023-01-18T18:58:07.073Z,1.00
2023-01-18T19:00:35.184Z,0.98
2023-01-18T19:03:04.696Z,0.52
2023-01-18T19:05:33.730Z,1.10
2023-01-18T19:08:01.897Z,0.55
2023-01-18T19:10:30.387Z,0.95
2023-01-18T19:12:58.709Z,0.55
2023-01-18T19:15:27.028Z,1.65
2023-01-18T19:18:01.272Z,1.33
2023-01-18T19:20:29.084Z,0.32
2023-01-18T19:22:56.905Z,1.90
2023-01-18T19:25:27.313Z,0.90
2023-01-18T19:27:56.426Z,3.37
2023-01-18T19:30:29.509Z,2.10
2023-01-18T19:32:59.861Z,1.17
2023-01-18T19:35:27.366Z,0.95
2023-01-18T19:37:55.333Z,1.85
2023-01-18T19:40:24.688Z,1.00
2023-01-18T19:42:55.974Z,1.02
2023-01-18T19:45:28.359Z,1.20
2023-01-18T19:47:57.769Z,1.80
2023-01-18T19:50:26.844Z,0.70
2023-01-18T19:52:54.445Z,1.45
2023-01-18T19:55:22.922Z,2.05
2023-01-18T19:57:52.378Z,1.02
2023-01-18T20:00:20.411Z,2.10
2023-01-18T20:02:48.689Z,1.08
2023-01-18T20:05:17.321Z,0.98
2023-01-18T20:07:45.079Z,1.17
2023-01-18T20:10:13.044Z,0.88
2023-01-18T20:12:42.974Z,1.35
2023-01-18T20:15:10.600Z,0.90
2023-01-18T20:17:38.396Z,0.75
2023-01-18T20:20:06.514Z,0.28
2023-01-18T20:22:33.955Z,0.17
2023-01-18T20:25:01.772Z,0.30
2023-01-18T20:27:29.502Z,0.85
2023-01-18T20:29:58.326Z,1.05
2023-01-18T20:32:26.400Z,0.70
2023-01-18T20:34:53.978Z,1.08
2023-01-18T20:37:21.481Z,1.12
2023-01-18T20:39:50.409Z,0.03
2023-01-18T20:42:18.115Z,1.12
2023-01-18T20:44:49.259Z,0.47
2023-01-18T20:47:17.200Z,0.90
2023-01-18T20:49:45.458Z,0.17
2023-01-18T20:52:13.072Z,0.45
2023-01-18T20:54:40.880Z,1.20
2023-01-18T20:57:08.622Z,0.73
2023-01-18T20:59:36.136Z,1.20
2023-01-18T21:02:05.219Z,3.65
2023-01-18T21:04:32.884Z,0.68
2023-01-18T21:07:00.536Z,2.20
2023-01-18T21:09:28.288Z,0.65
2023-01-18T21:11:55.915Z,1.02
2023-01-18T21:14:23.670Z,0.45
2023-01-18T21:16:51.451Z,0.82
2023-01-18T21:19:19.125Z,0.47
2023-01-18T21:21:46.697Z,0.32
2023-01-18T21:24:14.523Z,2.00
2023-01-18T21:26:42.193Z,0.00
2023-01-18T21:29:09.713Z,0.30
2023-01-18T21:31:39.986Z,1.12
2023-01-18T21:34:07.776Z,0.22
2023-01-18T21:36:35.716Z,1.65
2023-01-18T21:39:04.622Z,0.37
2023-01-18T21:41:50.574Z,0.10
2023-01-18T21:44:37.068Z,0.10
2023-01-18T21:47:04.593Z,0.08
2023-01-18T21:50:16.613Z,0.55
2023-01-18T21:52:57.180Z,0.57
2023-01-18T21:55:25.329Z,0.45
2023-01-18T21:58:11.359Z,0.98
2023-01-18T22:00:39.932Z,0.45
2023-01-18T22:03:09.810Z,0.75
2023-01-18T22:05:39.889Z,0.17
2023-01-18T22:08:09.910Z,0.08
2023-01-18T22:10:37.518Z,0.60
2023-01-18T22:13:05.121Z,0.68
2023-01-18T22:15:32.805Z,0.20
2023-01-18T22:18:00.791Z,1.37
2023-01-18T22:20:30.326Z,0.20
2023-01-18T22:22:58.626Z,0.05
2023-01-18T22:25:26.070Z,1.05
2023-01-18T22:27:53.446Z,0.55
2023-01-18T22:30:22.892Z,0.47
2023-01-18T22:32:50.299Z,1.33
2023-01-18T22:35:17.848Z,0.77
2023-01-18T22:37:45.599Z,2.15
2023-01-18T22:40:13.112Z,0.28
2023-01-18T22:42:40.749Z,1.30
2023-01-18T22:45:08.731Z,0.40
2023-01-18T22:47:36.240Z,0.90
2023-01-18T22:50:04.015Z,0.15
2023-01-18T22:52:31.794Z,0.77
2023-01-18T22:54:59.285Z,0.82
2023-01-18T22:57:26.666Z,1.15
2023-01-18T22:59:54.572Z,1.08
2023-01-18T23:02:21.995Z,0.50
2023-01-18T23:04:49.458Z,0.85
2023-01-18T23:07:17.562Z,1.65
2023-01-18T23:09:45.141Z,1.40
2023-01-18T23:12:12.696Z,0.70
2023-01-18T23:14:59.147Z,1.08
2023-01-18T23:17:38.850Z,0.15
2023-01-18T23:20:10.293Z,1.85
2023-01-18T23:22:38.108Z,0.95
2023-01-18T23:25:06.200Z,0.32
2023-01-18T23:27:33.712Z,0.22
2023-01-18T23:30:02.580Z,0.00
2023-01-18T23:32:30.888Z,0.70
2023-01-18T23:34:59.783Z,1.90
2023-01-18T23:37:27.663Z,0.50
2023-01-18T23:40:14.161Z,0.35
2023-01-18T23:43:01.153Z,0.73
2023-01-18T23:45:47.665Z,1.23
2023-01-18T23:48:37.874Z,0.43
2023-01-18T23:51:26.465Z,1.25
2023-01-18T23:54:12.810Z,0.45
2023-01-18T23:56:40.518Z,1.45
2023-01-18T23:59:08.837Z,0.35
